Time;durP1;ratioP1;P1;durP2;ratioP2;P2;SDS_P1;SDS_P2;PMS_P1;PMS_P2;Temp;Humidity;BMP_temperature;BMP_pressure;BME280_temperature;BME280_humidity;BME280_pressure;Samples;Min_cycle;Max_cycle;Signal;HPM_P1;HPM_P2
2023/04/15 00:00:51;;;;;;;15.60;10.23;;;6.20;99.90;;;4.46;100.00;99107.63;10401394;27;96696;-85
2023/04/15 00:05:54;;;;;;;15.57;10.13;;;6.20;99.90;;;4.47;100.00;99115.38;10381404;27;96610;-85
2023/04/15 00:11:01;;;;;;;16.90;10.70;;;6.20;99.90;;;4.48;100.00;99108.28;10387088;27;97683;-84
2023/04/15 00:16:07;;;;;;;16.20;10.83;;;6.30;99.90;;;4.51;100.00;99103.56;10388217;27;96557;-85
2023/04/15 00:21:10;;;;;;;13.33;9.50;;;6.30;99.90;;;4.53;100.00;99106.03;10390133;28;96571;-86
2023/04/15 00:26:13;;;;;;;15.30;10.37;;;6.30;99.90;;;4.54;100.00;99102.41;10404270;27;98330;-86
2023/04/15 00:31:16;;;;;;;17.77;10.23;;;6.30;99.90;;;4.53;100.00;99104.22;10387493;27;97735;-86
2023/04/15 00:36:19;;;;;;;18.70;10.50;;;6.30;99.90;;;4.57;100.00;99095.03;10388033;27;97767;-86
2023/04/15 00:41:22;;;;;;;16.17;10.07;;;6.30;99.90;;;4.61;100.00;99103.44;10403851;27;97643;-87
2023/04/15 00:46:29;;;;;;;13.60;9.17;;;6.30;99.90;;;4.63;100.00;99096.22;10403906;27;96456;-87
2023/04/15 00:51:35;;;;;;;17.07;10.93;;;6.40;99.90;;;4.66;100.00;99100.34;10372775;27;97206;-88
2023/04/15 00:56:39;;;;;;;15.83;9.57;;;6.40;99.90;;;4.67;100.00;99092.28;10422920;27;96510;-87
2023/04/15 01:01:43;;;;;;;13.90;9.23;;;6.40;99.90;;;4.72;100.00;99094.44;10382162;27;96822;-87
2023/04/15 01:06:46;;;;;;;18.33;12.00;;;6.50;99.90;;;4.74;100.00;99095.97;10403560;28;96712;-86
2023/04/15 01:11:49;;;;;;;17.63;10.87;;;6.50;99.90;;;4.75;100.00;99081.81;10392737;27;96824;-86
2023/04/15 01:16:52;;;;;;;14.47;9.17;;;6.50;99.90;;;4.79;100.00;99095.47;10387803;27;96773;-86
2023/04/15 01:21:56;;;;;;;18.10;10.73;;;6.50;99.90;;;4.80;100.00;99081.34;10403934;27;97452;-86
2023/04/15 01:26:59;;;;;;;16.20;9.57;;;6.60;99.90;;;4.82;100.00;99076.75;10385209;27;98250;-87
2023/04/15 01:32:03;;;;;;;12.17;8.37;;;6.60;99.90;;;4.80;100.00;99081.34;10409419;27;98317;-89
2023/04/15 01:37:06;;;;;;;14.93;9.10;;;6.60;99.90;;;4.82;100.00;99085.47;10416441;27;96518;-85
2023/04/15 01:42:09;;;;;;;12.50;7.77;;;6.60;99.90;;;4.81;100.00;99078.53;10421023;27;96566;-85
2023/04/15 01:47:13;;;;;;;14.83;8.80;;;6.60;99.90;;;4.84;100.00;99087.91;10384104;27;96542;-85
2023/04/15 01:52:16;;;;;;;14.03;9.00;;;6.60;99.90;;;4.87;100.00;99086.81;10386185;28;96754;-86
2023/04/15 01:57:19;;;;;;;11.50;7.07;;;6.60;99.90;;;4.90;100.00;99087.28;10383813;27;96713;-85
2023/04/15 02:02:22;;;;;;;12.27;7.33;;;6.70;99.90;;;4.96;100.00;99089.28;10396033;27;97303;-86
2023/04/15 02:07:27;;;;;;;10.87;7.07;;;6.70;99.90;;;5.00;100.00;99093.25;10403552;27;96512;-85
2023/04/15 02:12:30;;;;;;;11.53;7.67;;;6.70;99.90;;;5.02;100.00;99091.28;10385700;27;96762;-85
2023/04/15 02:17:34;;;;;;;13.43;8.60;;;6.80;99.90;;;5.05;100.00;99090.97;10376473;27;98853;-86
2023/04/15 02:22:37;;;;;;;14.50;9.43;;;6.80;99.90;;;5.00;100.00;99087.16;10419433;27;96547;-87
2023/04/15 02:27:40;;;;;;;14.93;9.23;;;6.80;99.90;;;5.01;100.00;99087.00;10333519;28;98352;-89
2023/04/15 02:32:43;;;;;;;15.03;8.33;;;6.80;99.90;;;5.00;100.00;99087.16;10317735;28;97247;-86
2023/04/15 02:37:47;;;;;;;15.57;9.27;;;6.80;99.90;;;5.04;100.00;99086.69;10318574;28;98475;-87
2023/04/15 02:42:50;;;;;;;14.77;9.37;;;6.80;99.90;;;5.08;100.00;99082.75;10316109;28;97334;-87
2023/04/15 02:47:53;;;;;;;13.90;8.83;;;6.90;99.90;;;5.10;100.00;99079.97;10315980;28;98240;-87
2023/04/15 02:52:56;;;;;;;16.83;9.20;;;6.90;99.90;;;5.14;100.00;99086.53;10360939;28;96688;-88
2023/04/15 02:58:00;;;;;;;14.00;8.30;;;6.90;99.90;;;5.10;100.00;99099.22;10331558;28;96619;-88
2023/04/15 03:03:04;;;;;;;17.00;9.30;;;6.90;99.90;;;5.04;100.00;99091.97;10333628;28;97406;-88
2023/04/15 03:08:08;;;;;;;14.07;7.50;;;6.80;99.90;;;4.96;100.00;99097.19;10340630;28;97370;-88
2023/04/15 03:13:11;;;;;;;15.30;8.27;;;6.80;99.90;;;4.95;100.00;99089.44;10338565;28;96601;-88
2023/04/15 03:18:13;;;;;;;15.00;8.20;;;6.70;99.90;;;4.97;100.00;99082.22;10331471;28;97053;-89
2023/04/15 03:23:17;;;;;;;31.03;15.73;;;6.80;99.90;;;5.02;100.00;99082.56;10325151;28;96607;-85
2023/04/15 03:28:20;;;;;;;25.50;11.87;;;6.80;99.90;;;5.04;100.00;99084.06;10330783;28;96555;-86
2023/04/15 03:33:23;;;;;;;15.93;10.00;;;6.80;99.90;;;5.06;100.00;99076.00;10330997;28;96585;-85
2023/04/15 03:38:25;;;;;;;16.97;7.90;;;6.80;99.90;;;5.06;100.00;99084.72;10332234;28;96513;-85
2023/04/15 03:43:29;;;;;;;20.40;9.93;;;6.80;99.90;;;5.07;100.00;99083.72;10336475;28;96399;-85
2023/04/15 03:48:32;;;;;;;17.57;8.83;;;6.90;99.90;;;5.08;100.00;99090.66;10335513;28;97856;-85
2023/04/15 03:53:35;;;;;;;17.43;8.70;;;6.80;99.90;;;5.09;100.00;99089.66;10334068;28;96596;-85
2023/04/15 03:58:38;;;;;;;16.60;8.37;;;6.80;99.90;;;5.09;100.00;99094.91;10353118;28;96884;-86
2023/04/15 04:03:41;;;;;;;16.90;9.63;;;6.90;99.90;;;5.10;100.00;99083.44;10315171;28;96699;-86
2023/04/15 04:08:45;;;;;;;16.70;9.43;;;6.90;99.90;;;5.17;100.00;99085.41;10290288;28;97214;-80
2023/04/15 04:13:48;;;;;;;15.73;8.33;;;6.90;99.90;;;5.24;100.00;99081.16;10332834;28;98405;-80
2023/04/15 04:18:51;;;;;;;15.77;9.17;;;7.00;99.90;;;5.24;100.00;99073.25;10307460;28;98336;-80
2023/04/15 04:23:55;;;;;;;13.53;7.87;;;7.00;99.90;;;5.27;100.00;99075.56;10328132;28;98465;-80
2023/04/15 04:28:58;;;;;;;17.23;10.47;;;7.10;99.90;;;5.28;100.00;99077.22;10362487;28;98840;-81
2023/04/15 04:34:01;;;;;;;17.20;9.77;;;7.10;99.90;;;5.33;100.00;99088.06;10355535;28;96660;-81
2023/04/15 04:39:04;;;;;;;21.73;10.97;;;7.10;99.90;;;5.38;100.00;99077.88;10346118;28;96565;-81
2023/04/15 04:44:07;;;;;;;21.20;10.77;;;7.10;99.90;;;5.42;100.00;99084.50;10336235;28;96735;-81
2023/04/15 04:49:10;;;;;;;16.80;10.57;;;7.20;99.90;;;5.46;100.00;99087.59;10359661;28;96643;-81
2023/04/15 04:54:13;;;;;;;15.30;8.10;;;7.20;99.90;;;5.51;100.00;99074.78;10328812;28;96521;-81
2023/04/15 04:59:16;;;;;;;11.53;6.60;;;7.30;99.90;;;5.56;100.00;99077.75;10329586;28;97812;-80
2023/04/15 05:04:21;;;;;;;16.20;9.57;;;7.30;99.90;;;5.64;100.00;99078.59;10361584;28;96655;-80
2023/04/15 05:09:24;;;;;;;14.40;9.37;;;7.40;99.90;;;5.74;100.00;99075.78;10348561;28;98425;-80
2023/04/15 05:14:27;;;;;;;15.90;8.97;;;7.50;99.90;;;5.88;100.00;99085.69;10357683;28;98358;-80
2023/04/15 05:19:30;;;;;;;12.53;7.77;;;7.60;99.90;;;6.01;100.00;99082.59;10370957;28;96564;-80
2023/04/15 05:24:33;;;;;;;9.13;5.50;;;7.70;99.90;;;6.11;100.00;99072.66;10344493;28;96623;-81
2023/04/15 05:29:36;;;;;;;9.97;6.77;;;7.90;99.90;;;6.21;100.00;99072.50;10402635;28;97309;-81
2023/04/15 05:34:39;;;;;;;11.40;5.43;;;8.00;99.90;;;6.32;100.00;99079.25;10400888;27;96598;-80
2023/04/15 05:39:42;;;;;;;11.30;7.40;;;8.00;99.90;;;6.40;100.00;99077.41;10401582;27;98563;-81
2023/04/15 05:44:46;;;;;;;10.60;6.93;;;8.10;99.90;;;6.46;100.00;99078.53;10403108;27;96623;-80
2023/04/15 05:49:49;;;;;;;9.60;6.07;;;8.20;99.90;;;6.57;100.00;99085.28;10416474;28;98058;-80
2023/04/15 05:54:51;;;;;;;9.27;6.07;;;8.30;99.90;;;6.62;100.00;99097.00;10403961;28;96533;-80
2023/04/15 05:59:56;;;;;;;8.90;5.87;;;8.30;99.90;;;6.75;100.00;99093.00;10403655;28;96515;-80
2023/04/15 06:04:59;;;;;;;11.37;7.70;;;8.50;99.90;;;6.88;100.00;99095.91;10379906;27;96895;-85
2023/04/15 06:10:04;;;;;;;10.23;7.73;;;8.60;99.90;;;6.99;100.00;99098.19;10405845;27;97249;-83
2023/04/15 06:15:09;;;;;;;9.53;7.73;;;8.70;99.90;;;7.14;100.00;99104.41;10380634;27;99089;-79
2023/04/15 06:20:12;;;;;;;16.03;10.57;;;8.80;99.90;;;7.13;100.00;99110.66;10393073;27;97332;-84
2023/04/15 06:25:15;;;;;;;16.60;9.87;;;8.90;99.90;;;7.22;100.00;99117.56;10397868;27;98517;-80
2023/04/15 06:30:18;;;;;;;12.13;8.60;;;8.90;99.90;;;7.40;100.00;99117.31;10399640;28;96732;-82
2023/04/15 06:35:21;;;;;;;11.97;8.63;;;9.10;99.90;;;7.53;100.00;99113.25;10399325;28;96528;-79
2023/04/15 06:40:24;;;;;;;12.57;9.87;;;9.20;99.90;;;7.64;100.00;99132.19;10379744;27;98877;-79
2023/04/15 06:45:27;;;;;;;12.33;10.60;;;9.30;99.90;;;7.69;100.00;99123.75;10390135;27;98469;-79
2023/04/15 06:50:31;;;;;;;11.90;8.23;;;9.40;99.90;;;7.92;100.00;99131.69;10385122;28;96540;-79
2023/04/15 06:55:34;;;;;;;10.87;7.83;;;9.60;99.90;;;8.11;100.00;99125.91;10418243;28;96631;-79
2023/04/15 07:00:38;;;;;;;8.47;6.70;;;9.80;99.90;;;8.44;100.00;99126.47;10400814;28;96466;-79
2023/04/15 07:05:40;;;;;;;8.57;6.47;;;10.00;99.90;;;8.89;100.00;99134.47;10385449;28;96349;-79
2023/04/15 07:10:43;;;;;;;7.43;5.50;;;10.40;99.90;;;9.21;100.00;99125.28;10398556;28;97445;-79
2023/04/15 07:15:46;;;;;;;7.93;4.57;;;10.70;99.90;;;9.43;100.00;99119.03;10385261;28;96536;-79
2023/04/15 07:20:50;;;;;;;5.77;3.83;;;11.00;99.90;;;9.54;100.00;99131.00;10369281;28;96973;-79
2023/04/15 07:25:53;;;;;;;5.63;3.67;;;11.10;99.90;;;9.64;98.92;99124.34;10401401;28;96658;-79
2023/04/15 07:30:56;;;;;;;5.73;3.87;;;11.30;99.90;;;9.85;97.73;99123.56;10400139;28;96540;-79
2023/04/15 07:35:59;;;;;;;3.70;3.17;;;11.50;99.90;;;10.41;91.23;99118.34;10385229;28;96520;-79
2023/04/15 07:41:03;;;;;;;3.03;2.67;;;11.70;99.90;;;10.95;91.66;99125.66;10418382;28;97892;-79
2023/04/15 07:46:07;;;;;;;3.05;2.60;;;12.20;99.90;;;11.81;88.47;99122.50;10399726;28;96626;-80
2023/04/15 07:51:11;;;;;;;4.00;2.45;;;12.80;99.90;;;12.68;81.39;99118.03;10399735;28;96617;-80
2023/04/15 07:56:15;;;;;;;2.28;1.98;;;13.30;99.90;;;13.11;74.73;99121.81;10384578;27;96487;-80
2023/04/15 08:01:18;;;;;;;2.78;2.42;;;13.70;99.90;;;12.60;74.88;99124.41;10407559;28;96482;-80
2023/04/15 08:06:21;;;;;;;3.30;2.50;;;13.60;99.90;;;12.20;77.60;99129.72;10391562;28;96435;-79
2023/04/15 08:11:25;;;;;;;3.08;2.60;;;13.50;99.90;;;11.69;77.08;99130.22;10424596;28;96487;-80
2023/04/15 08:16:28;;;;;;;3.80;2.60;;;13.20;99.90;;;11.61;77.18;99118.97;10374077;28;98201;-80
2023/04/15 08:21:31;;;;;;;3.90;2.83;;;13.10;99.90;;;11.73;76.07;99126.16;10406988;28;96461;-80
2023/04/15 08:26:35;;;;;;;5.55;3.38;;;13.30;99.90;;;12.10;74.61;99128.50;10389720;28;97109;-80
2023/04/15 08:31:38;;;;;;;3.60;2.33;;;13.60;99.90;;;12.36;72.74;99136.50;10399386;28;96528;-80
2023/04/15 08:36:42;;;;;;;3.08;1.60;;;13.90;99.90;;;12.49;71.96;99135.69;10349207;28;96697;-80
2023/04/15 08:41:50;;;;;;;3.40;1.60;;;14.10;99.90;;;12.71;71.75;99136.25;10364902;28;96422;-80
2023/04/15 08:46:55;;;;;;;2.25;1.50;;;14.40;99.90;;;12.56;69.69;99137.31;10389839;28;96446;-79
2023/04/15 08:51:59;;;;;;;1.83;1.42;;;14.30;99.80;;;12.30;68.26;99137.31;10424058;28;96702;-80
2023/04/15 08:57:02;;;;;;;2.50;1.50;;;14.10;99.30;;;12.21;67.93;99141.19;10405231;28;96526;-80
2023/04/15 09:02:06;;;;;;;2.55;1.30;;;13.90;98.60;;;11.96;69.22;99144.47;10422784;28;96566;-80
2023/04/15 09:07:09;;;;;;;2.27;1.43;;;13.70;98.70;;;11.59;68.94;99139.63;10390227;28;96442;-80
2023/04/15 09:12:12;;;;;;;2.33;1.40;;;13.40;99.00;;;11.18;70.34;99141.31;10373092;28;96748;-80
2023/04/15 09:17:20;;;;;;;2.03;1.17;;;13.00;99.20;;;10.97;72.71;99150.22;10389434;28;96500;-80
2023/04/15 09:22:23;;;;;;;3.13;1.35;;;12.60;99.90;;;12.15;70.37;99139.34;10389783;28;96355;-81
2023/04/15 09:27:26;;;;;;;1.80;1.25;;;13.50;99.90;;;13.18;64.64;99127.13;10389238;28;96661;-80
2023/04/15 09:32:30;;;;;;;4.38;1.27;;;14.50;99.90;;;13.27;65.57;99138.41;10397795;28;96902;-79
2023/04/15 09:37:36;;;;;;;1.67;1.15;;;14.70;99.00;;;13.00;65.06;99137.63;10414060;28;96512;-80
2023/04/15 09:42:55;;;;;;;3.38;1.45;;;14.60;96.90;;;12.73;63.37;99143.03;10421189;28;96451;-80
2023/04/15 09:48:15;;;;;;;3.58;1.90;;;14.50;96.20;;;12.35;65.52;99134.03;10421827;28;96689;-79
2023/04/15 09:53:21;;;;;;;1.77;1.27;;;14.10;96.30;;;11.96;65.99;99146.31;10362238;28;96519;-80
2023/04/15 09:58:30;;;;;;;2.73;1.37;;;13.70;96.40;;;11.56;65.91;99150.66;10363152;28;96484;-80
2023/04/15 10:03:35;;;;;;;2.10;1.50;;;13.40;96.40;;;11.32;67.76;99152.00;10412492;28;97752;-78
2023/04/15 10:08:40;;;;;;;2.77;1.53;;;13.10;96.80;;;11.07;68.38;99157.81;10423019;28;96533;-78
2023/04/15 10:13:46;;;;;;;9.00;5.60;;;12.90;97.50;;;10.88;69.70;99159.34;10422415;28;96516;-79
2023/04/15 10:18:55;;;;;;;4.97;2.87;;;12.70;98.20;;;11.13;72.07;99158.88;10387097;27;96560;-79
2023/04/15 10:24:00;;;;;;;9.03;6.07;;;12.90;99.40;;;11.38;69.65;99154.69;10402706;28;96461;-79
2023/04/15 10:29:04;;;;;;;4.13;2.30;;;13.10;98.80;;;11.72;69.56;99145.00;10387107;28;96695;-79
2023/04/15 10:34:08;;;;;;;3.07;1.80;;;13.40;98.50;;;11.87;67.78;99147.50;10385654;28;97146;-79
2023/04/15 10:39:33;;;;;;;2.77;1.70;;;13.60;97.70;;;11.63;67.80;99156.81;10386793;28;96577;-79
2023/04/15 10:44:41;;;;;;;1.63;0.80;;;13.40;96.90;;;11.49;68.40;99143.47;10402445;28;96463;-78
2023/04/15 10:49:50;;;;;;;2.07;1.20;;;13.30;97.40;;;11.64;68.88;99153.16;10386124;28;96745;-78
2023/04/15 10:55:32;;;;;;;3.92;1.50;;;13.40;98.00;;;12.16;70.47;99160.44;10403315;28;96536;-79
2023/04/15 11:00:36;;;;;;;7.35;4.07;;;13.90;98.70;;;12.73;64.02;99163.53;10305801;28;96724;-79
2023/04/15 11:05:52;;;;;;;4.15;2.13;;;14.60;96.70;;;12.59;62.55;99158.22;10344838;28;96484;-80
2023/04/15 11:10:55;;;;;;;1.30;0.50;;;14.50;94.90;;;12.39;63.42;99172.56;10366022;27;97774;-79
2023/04/15 11:16:00;;;;;;;7.07;2.95;;;14.20;94.40;;;12.00;64.97;99180.31;10369199;27;97853;-80
2023/04/15 11:21:06;;;;;;;2.72;1.00;;;13.90;95.10;;;11.93;66.26;99179.44;10377161;27;98010;-81
2023/04/15 11:26:11;;;;;;;6.53;2.42;;;13.80;96.20;;;12.29;67.98;99180.94;10392921;27;97055;-80
2023/04/15 11:31:17;;;;;;;3.67;1.92;;;14.10;97.20;;;12.33;64.51;99174.19;10399466;27;97120;-80
2023/04/15 11:36:20;;;;;;;2.42;1.10;;;14.30;95.60;;;12.37;64.98;99178.09;10412695;27;98950;-80
2023/04/15 11:41:23;;;;;;;1.02;0.60;;;14.20;95.70;;;12.58;65.58;99175.22;10406814;27;98792;-80
2023/04/15 11:46:33;;;;;;;1.70;0.90;;;14.40;95.60;;;12.56;64.26;99179.94;10403795;27;98107;-80
2023/04/15 11:51:38;;;;;;;1.95;0.98;;;14.50;95.30;;;12.59;64.63;99187.53;10423675;27;96591;-80
2023/04/15 11:56:41;;;;;;;0.90;0.57;;;14.50;94.70;;;12.56;62.74;99174.63;10370765;27;99005;-80
2023/04/15 12:01:46;;;;;;;2.35;1.20;;;14.40;94.00;;;12.53;63.89;99183.03;10401659;27;97433;-80
2023/04/15 12:06:49;;;;;;;9.68;3.90;;;14.40;94.40;;;12.40;62.68;99183.00;10388544;28;96579;-80
2023/04/15 12:11:57;;;;;;;2.17;1.10;;;14.30;93.80;;;12.47;63.44;99180.34;10375065;27;97903;-79
2023/04/15 12:17:05;;;;;;;3.38;1.52;;;14.30;93.90;;;12.29;62.21;99188.94;10383036;27;97182;-80
2023/04/15 12:22:14;;;;;;;13.93;4.40;;;14.10;93.60;;;12.00;64.31;99190.97;10406237;27;98374;-79
2023/04/15 12:27:17;;;;;;;1.13;0.57;;;13.80;94.20;;;11.77;66.23;99193.13;10410879;27;96725;-78
2023/04/15 12:32:20;;;;;;;2.03;0.90;;;13.60;95.10;;;11.69;67.68;99199.41;10400418;28;96780;-79
2023/04/15 12:37:24;;;;;;;3.78;1.88;;;13.40;96.10;;;11.95;65.08;99201.41;10384854;27;98615;-79
2023/04/15 12:42:27;;;;;;;1.60;0.98;;;13.70;95.60;;;12.07;64.78;99200.81;10404614;27;98489;-79
2023/04/15 12:47:30;;;;;;;2.38;1.30;;;13.90;94.90;;;12.17;63.37;99195.88;10421749;27;96586;-79
2023/04/15 12:52:33;;;;;;;2.97;2.13;;;14.00;94.60;;;12.25;63.76;99203.72;10403598;28;98417;-79
2023/04/15 12:57:37;;;;;;;4.40;2.30;;;14.00;94.40;;;12.10;63.74;99206.53;10370962;28;96702;-79
2023/04/15 13:02:42;;;;;;;79.77;31.53;;;13.90;94.30;;;11.77;64.26;99214.41;10381138;28;97952;-79
2023/04/15 13:07:45;;;;;;;9.10;3.57;;;13.70;94.30;;;11.66;66.64;99217.63;10387575;28;96642;-78
2023/04/15 13:12:52;;;;;;;2.45;1.40;;;13.50;95.30;;;11.82;67.32;99217.34;10404591;28;96767;-79
2023/04/15 13:17:55;;;;;;;1.40;0.80;;;13.70;95.80;;;12.07;66.52;99224.78;10399978;27;98781;-78
2023/04/15 13:22:58;;;;;;;1.98;1.02;;;13.90;95.30;;;12.16;66.07;99216.38;10390205;27;97488;-78
2023/04/15 13:28:01;;;;;;;1.17;0.80;;;13.90;95.20;;;12.14;65.11;99222.94;10399179;28;96524;-78
2023/04/15 13:33:05;;;;;;;1.60;0.80;;;14.00;94.60;;;12.01;65.04;99223.72;10401938;27;97219;-78
2023/04/15 13:38:08;;;;;;;5.00;2.60;;;13.80;94.60;;;11.80;65.60;99232.63;10404596;28;96644;-78
2023/04/15 13:43:11;;;;;;;4.13;1.90;;;13.60;94.90;;;11.71;66.99;99239.97;10385837;27;97099;-78
2023/04/15 13:48:15;;;;;;;1.00;0.70;;;13.50;95.40;;;11.65;66.99;99229.31;10394892;28;97162;-78
2023/04/15 13:53:18;;;;;;;1.33;0.80;;;13.40;95.50;;;11.91;67.94;99237.41;10401699;27;98736;-79
2023/04/15 13:58:21;;;;;;;2.53;0.98;;;13.70;96.20;;;12.22;66.46;99236.88;10385669;27;96695;-78
2023/04/15 14:03:24;;;;;;;1.52;0.60;;;14.10;95.40;;;12.08;64.52;99245.88;10412022;28;96801;-78
2023/04/15 14:08:29;;;;;;;1.57;0.93;;;14.00;93.90;;;11.77;65.42;99244.50;10384085;27;98799;-78
2023/04/15 14:13:32;;;;;;;3.10;1.50;;;13.60;94.40;;;11.58;66.72;99255.91;10388120;28;96767;-77
2023/04/15 14:18:36;;;;;;;2.97;1.27;;;13.40;95.10;;;11.30;66.71;99261.25;10399605;27;98650;-78
2023/04/15 14:23:39;;;;;;;2.53;1.30;;;13.10;95.30;;;11.15;68.62;99255.19;10398717;27;97606;-78
2023/04/15 14:28:43;;;;;;;1.13;0.77;;;12.90;96.20;;;11.17;68.58;99264.66;10397561;27;97750;-78
2023/04/15 14:33:46;;;;;;;1.43;0.97;;;13.00;96.20;;;11.20;68.14;99263.44;10395122;27;96774;-78
2023/04/15 14:38:49;;;;;;;2.57;1.03;;;13.00;96.20;;;11.14;68.65;99277.50;10392486;27;96621;-79
2023/04/15 14:43:53;;;;;;;1.37;0.87;;;12.90;96.20;;;11.14;69.92;99277.50;10402753;27;97829;-79
2023/04/15 14:48:56;;;;;;;1.50;1.00;;;12.90;96.90;;;11.20;69.92;99274.88;10377557;27;98153;-78
2023/04/15 14:53:59;;;;;;;1.90;1.00;;;13.00;96.90;;;11.33;69.74;99276.81;10382377;27;96663;-78
2023/04/15 14:59:02;;;;;;;1.90;1.20;;;13.10;96.90;;;11.37;69.14;99280.72;10392546;27;98271;-79
2023/04/15 15:04:06;;;;;;;2.83;1.30;;;13.10;96.60;;;11.26;69.88;99281.25;10398669;27;96894;-78
2023/04/15 15:09:09;;;;;;;2.50;1.30;;;13.00;96.90;;;11.12;70.19;99291.00;10377779;27;96561;-78
2023/04/15 15:14:12;;;;;;;3.00;1.70;;;12.90;97.00;;;11.05;71.03;99284.00;10381489;27;97332;-78
2023/04/15 15:19:15;;;;;;;2.80;1.77;;;12.80;97.40;;;11.07;71.18;99289.94;10400040;27;98555;-79
2023/04/15 15:24:18;;;;;;;3.50;1.90;;;12.80;97.50;;;11.12;71.25;99304.28;10401209;27;97068;-78
2023/04/15 15:29:23;;;;;;;1.70;0.90;;;12.80;97.70;;;11.14;70.87;99306.75;10384341;27;97340;-80
2023/04/15 15:34:26;;;;;;;13.97;8.47;;;12.90;97.80;;;11.08;69.91;99304.84;10388542;27;96978;-80
2023/04/15 15:39:29;;;;;;;5.40;2.30;;;12.80;97.30;;;11.01;71.23;99325.25;10401226;27;98457;-80
2023/04/15 15:44:32;;;;;;;7.53;2.93;;;12.70;97.70;;;10.89;73.45;99331.09;10397545;27;97125;-79
2023/04/15 15:49:36;;;;;;;6.83;1.60;;;12.60;98.10;;;10.63;75.38;99346.78;10419399;27;96701;-79
2023/04/15 15:54:40;;;;;;;0.80;0.67;;;12.40;99.00;;;10.03;78.68;99366.50;10412484;27;97299;-79
2023/04/15 15:59:43;;;;;;;1.67;0.50;;;12.00;99.90;;;9.07;82.64;99384.03;10378611;27;97379;-79
2023/04/15 16:04:48;;;;;;;6.70;3.17;;;11.10;99.90;;;8.52;85.28;99377.13;10418438;27;97572;-79
2023/04/15 16:09:52;;;;;;;5.80;2.30;;;10.50;99.90;;;8.32;88.10;99376.69;10370885;27;98251;-79
2023/04/15 16:14:55;;;;;;;12.97;5.57;;;10.10;99.90;;;8.26;89.53;99372.91;10381878;27;97302;-79
2023/04/15 16:19:59;;;;;;;9.90;4.60;;;10.00;99.90;;;8.23;90.68;99378.56;10401340;28;96638;-79
2023/04/15 16:25:03;;;;;;;9.80;5.40;;;9.90;99.90;;;8.18;91.66;99385.38;10405637;27;96607;-79
2023/04/15 16:30:08;;;;;;;6.10;3.43;;;9.90;99.90;;;8.10;92.47;99391.53;10405906;27;96475;-79
2023/04/15 16:35:13;;;;;;;15.80;9.20;;;9.80;99.90;;;8.01;93.55;99411.88;10407520;27;96598;-79
2023/04/15 16:40:16;;;;;;;8.93;3.33;;;9.80;99.90;;;7.98;94.48;99411.41;10388624;27;96838;-79
2023/04/15 16:45:19;;;;;;;9.77;3.97;;;9.70;99.90;;;7.96;95.56;99410.75;10405224;27;96611;-79
2023/04/15 16:50:22;;;;;;;11.10;5.47;;;9.70;99.90;;;7.95;96.55;99422.31;10364421;27;96677;-79
2023/04/15 16:55:26;;;;;;;14.67;9.53;;;9.70;99.90;;;7.96;97.28;99416.03;10390978;27;96543;-78
2023/04/15 17:00:30;;;;;;;14.67;9.40;;;9.70;99.90;;;7.94;98.28;99428.63;10378873;27;96552;-78
2023/04/15 17:05:33;;;;;;;13.53;9.07;;;9.60;99.90;;;7.93;99.07;99430.44;10402742;28;96717;-78
2023/04/15 17:10:36;;;;;;;8.73;5.97;;;9.60;99.90;;;7.94;99.66;99434.72;10401887;28;96633;-78
2023/04/15 17:15:39;;;;;;;10.67;7.47;;;9.60;99.90;;;7.91;100.00;99442.16;10402857;27;98243;-79
2023/04/15 17:20:44;;;;;;;14.27;9.13;;;9.60;99.90;;;7.91;100.00;99447.47;10388398;27;97381;-78
2023/04/15 17:25:47;;;;;;;11.30;8.07;;;9.60;99.90;;;7.90;100.00;99451.09;10403910;28;97966;-78
2023/04/15 17:30:50;;;;;;;12.47;8.57;;;9.60;99.90;;;7.84;100.00;99452.59;10387098;27;96731;-77
2023/04/15 17:35:53;;;;;;;13.83;8.97;;;9.60;99.90;;;7.85;100.00;99464.81;10386515;28;96717;-78
2023/04/15 17:40:57;;;;;;;19.53;11.40;;;9.60;99.90;;;7.82;100.00;99465.19;10371476;27;96613;-78
2023/04/15 17:46:00;;;;;;;21.23;13.80;;;9.60;99.90;;;7.81;100.00;99475.94;10404030;27;96731;-78
2023/04/15 17:51:03;;;;;;;27.10;12.43;;;9.60;99.90;;;7.74;100.00;99494.28;10388015;27;97560;-85
2023/04/15 17:56:07;;;;;;;16.97;12.53;;;9.50;99.90;;;7.65;100.00;99490.81;10403792;28;96656;-84
2023/04/15 18:01:10;;;;;;;22.93;14.33;;;9.40;99.90;;;7.58;100.00;99505.69;10391076;27;96556;-84
2023/04/15 18:06:15;;;;;;;15.77;11.53;;;9.40;99.90;;;7.50;100.00;99508.34;10419283;27;96553;-84
2023/04/15 18:11:18;;;;;;;26.17;13.17;;;9.30;99.90;;;7.40;100.00;99513.78;10370810;28;96885;-86
2023/04/15 18:16:21;;;;;;;33.47;20.10;;;9.20;99.90;;;7.31;100.00;99516.56;10410050;27;96490;-89
2023/04/15 18:21:25;;;;;;;45.53;23.90;;;9.10;99.90;;;7.23;100.00;99526.13;10400914;27;96632;-86
2023/04/15 18:26:28;;;;;;;48.13;24.67;;;9.10;99.90;;;7.14;100.00;99535.06;10399135;28;96589;-86
2023/04/15 18:31:32;;;;;;;71.53;38.97;;;9.00;99.90;;;7.02;100.00;99539.00;10387639;27;96615;-85
2023/04/15 18:36:35;;;;;;;44.83;24.60;;;8.90;99.90;;;6.93;100.00;99542.59;10372678;27;98372;-86
2023/04/15 18:41:38;;;;;;;35.13;20.30;;;8.70;99.90;;;6.82;100.00;99551.63;10395504;27;98533;-90
2023/04/15 18:46:41;;;;;;;35.57;21.30;;;8.60;99.90;;;6.75;100.00;99563.81;10419613;27;96612;-93
2023/04/15 18:51:44;;;;;;;26.33;16.93;;;8.50;99.90;;;6.73;100.00;99567.59;10422077;27;97055;-91
2023/04/15 18:56:47;;;;;;;21.87;14.87;;;8.50;99.90;;;6.66;100.00;99578.81;10404010;27;96752;-91
2023/04/15 19:01:50;;;;;;;41.63;16.73;;;8.50;99.90;;;6.60;100.00;99576.78;10385922;27;96418;-89
2023/04/15 19:06:53;;;;;;;14.90;9.77;;;8.40;99.90;;;6.55;100.00;99583.53;10422022;27;96612;-91
2023/04/15 19:11:57;;;;;;;14.53;8.93;;;8.40;99.90;;;6.49;100.00;99592.06;10409699;27;96713;-89
2023/04/15 19:17:00;;;;;;;8.20;5.07;;;8.30;99.90;;;6.42;100.00;99594.50;10420019;27;96761;-90
2023/04/15 19:22:03;;;;;;;14.03;9.50;;;8.30;99.90;;;6.39;100.00;99618.56;10388231;27;96949;-88
2023/04/15 19:27:06;;;;;;;13.37;9.23;;;8.20;99.90;;;6.31;100.00;99621.97;10404880;27;98794;-91
2023/04/15 19:32:09;;;;;;;14.80;9.53;;;8.20;99.90;;;6.28;100.00;99627.56;10398338;28;97000;-90
2023/04/15 19:37:13;;;;;;;14.43;8.87;;;8.10;99.90;;;6.22;100.00;99630.81;10399455;27;97187;-89
2023/04/15 19:42:16;;;;;;;12.83;7.83;;;8.10;99.90;;;6.16;100.00;99634.88;10395656;27;96775;-90
2023/04/15 19:47:19;;;;;;;9.50;6.93;;;8.00;99.90;;;6.11;100.00;99641.59;10381623;27;98402;-90
2023/04/15 19:52:22;;;;;;;10.30;6.53;;;7.90;99.90;;;6.05;100.00;99627.22;10375206;27;97404;-90
2023/04/15 19:57:26;;;;;;;26.60;13.20;;;7.90;99.90;;;6.04;100.00;99635.28;10417155;27;96493;-86
2023/04/15 20:02:29;;;;;;;17.80;10.80;;;7.90;99.90;;;6.04;100.00;99645.84;10401544;27;96673;-82
2023/04/15 20:07:32;;;;;;;14.87;8.60;;;7.90;99.90;;;6.04;100.00;99653.75;10410646;27;97783;-83
2023/04/15 20:12:35;;;;;;;12.60;7.40;;;7.90;99.90;;;6.04;100.00;99659.84;10389291;28;96744;-84
2023/04/15 20:17:54;;;;;;;17.93;8.47;;;7.90;99.90;;;6.03;100.00;99660.00;10390478;28;97241;-84
2023/04/15 20:22:57;;;;;;;20.63;10.23;;;7.90;99.90;;;6.02;100.00;99669.72;10425409;27;97001;-83
2023/04/15 20:28:00;;;;;;;50.20;19.33;;;7.90;99.90;;;6.02;100.00;99671.53;10386436;28;98783;-84
2023/04/15 20:33:06;;;;;;;48.70;20.77;;;7.90;99.90;;;6.02;100.00;99680.28;10377829;27;96923;-84
2023/04/15 20:38:09;;;;;;;35.23;19.30;;;7.90;99.90;;;6.00;100.00;99684.88;10421138;27;96546;-84
2023/04/15 20:43:15;;;;;;;46.27;20.53;;;7.80;99.90;;;5.99;100.00;99677.94;10403769;27;96826;-84
2023/04/15 20:48:19;;;;;;;49.10;20.80;;;7.80;99.90;;;5.98;100.00;99684.19;10388019;27;96812;-85
2023/04/15 20:53:22;;;;;;;48.80;23.20;;;7.80;99.90;;;5.96;100.00;99688.78;10400824;27;96679;-84
2023/04/15 20:58:25;;;;;;;33.93;18.37;;;7.80;99.90;;;5.98;100.00;99688.63;10405334;28;98102;-86
2023/04/15 21:03:29;;;;;;;32.27;17.53;;;7.80;99.90;;;5.98;100.00;99696.56;10377874;27;96583;-86